sensor_id;sensor_type;location;lat;lon;timestamp;P1;durP1;ratioP1;P2;durP2;ratioP2
43803;SDS011;29430;52.924;-2.388;2023-05-10T00:03:55;5.47;;;1.15;;
43803;SDS011;29430;52.924;-2.388;2023-05-10T00:08:46;2.75;;;0.82;;
43803;SDS011;29430;52.924;-2.388;2023-05-10T00:13:38;8.48;;;0.90;;
43803;SDS011;29430;52.924;-2.388;2023-05-10T00:18:30;8.27;;;1.00;;
43803;SDS011;29430;52.924;-2.388;2023-05-10T00:23:21;7.93;;;1.20;;
43803;SDS011;29430;52.924;-2.388;2023-05-10T00:28:13;8.57;;;0.98;;
43803;SDS011;29430;52.924;-2.388;2023-05-10T00:33:04;3.90;;;0.68;;
43803;SDS011;29430;52.924;-2.388;2023-05-10T00:37:56;4.85;;;0.98;;
43803;SDS011;29430;52.924;-2.388;2023-05-10T00:42:48;5.32;;;0.90;;
43803;SDS011;29430;52.924;-2.388;2023-05-10T00:47:39;7.10;;;1.10;;
43803;SDS011;29430;52.924;-2.388;2023-05-10T00:52:31;4.68;;;0.90;;
43803;SDS011;29430;52.924;-2.388;2023-05-10T00:57:23;6.13;;;1.02;;
43803;SDS011;29430;52.924;-2.388;2023-05-10T01:02:15;5.97;;;1.05;;
43803;SDS011;29430;52.924;-2.388;2023-05-10T01:07:07;4.63;;;0.73;;
43803;SDS011;29430;52.924;-2.388;2023-05-10T01:11:59;2.47;;;0.65;;
43803;SDS011;29430;52.924;-2.388;2023-05-10T01:16:52;3.97;;;0.90;;
43803;SDS011;29430;52.924;-2.388;2023-05-10T01:31:57;6.80;;;1.15;;
43803;SDS011;29430;52.924;-2.388;2023-05-10T01:36:58;3.70;;;0.63;;
43803;SDS011;29430;52.924;-2.388;2023-05-10T01:47:34;6.47;;;1.00;;
43803;SDS011;29430;52.924;-2.388;2023-05-10T01:52:36;6.78;;;1.00;;
43803;SDS011;29430;52.924;-2.388;2023-05-10T01:57:35;6.32;;;1.00;;
43803;SDS011;29430;52.924;-2.388;2023-05-10T02:02:33;6.10;;;0.90;;
43803;SDS011;29430;52.924;-2.388;2023-05-10T02:07:37;7.57;;;0.80;;
43803;SDS011;29430;52.924;-2.388;2023-05-10T02:12:29;5.57;;;0.70;;
43803;SDS011;29430;52.924;-2.388;2023-05-10T02:17:23;4.85;;;0.80;;
43803;SDS011;29430;52.924;-2.388;2023-05-10T02:22:16;5.22;;;1.10;;
43803;SDS011;29430;52.924;-2.388;2023-05-10T02:27:09;4.25;;;0.80;;
43803;SDS011;29430;52.924;-2.388;2023-05-10T02:32:02;5.30;;;1.00;;
43803;SDS011;29430;52.924;-2.388;2023-05-10T02:36:55;10.98;;;1.10;;
43803;SDS011;29430;52.924;-2.388;2023-05-10T02:41:48;2.72;;;0.70;;
43803;SDS011;29430;52.924;-2.388;2023-05-10T02:46:41;4.85;;;1.00;;
43803;SDS011;29430;52.924;-2.388;2023-05-10T02:51:34;4.55;;;0.88;;
43803;SDS011;29430;52.924;-2.388;2023-05-10T02:56:29;6.65;;;0.98;;
43803;SDS011;29430;52.924;-2.388;2023-05-10T03:01:24;2.38;;;0.60;;
43803;SDS011;29430;52.924;-2.388;2023-05-10T03:06:16;5.53;;;1.10;;
43803;SDS011;29430;52.924;-2.388;2023-05-10T03:16:02;6.10;;;1.17;;
43803;SDS011;29430;52.924;-2.388;2023-05-10T03:20:59;4.25;;;1.00;;
43803;SDS011;29430;52.924;-2.388;2023-05-10T03:25:56;6.03;;;0.83;;
43803;SDS011;29430;52.924;-2.388;2023-05-10T03:30:49;5.80;;;0.70;;
43803;SDS011;29430;52.924;-2.388;2023-05-10T03:35:41;6.65;;;0.90;;
43803;SDS011;29430;52.924;-2.388;2023-05-10T03:40:32;4.78;;;0.80;;
43803;SDS011;29430;52.924;-2.388;2023-05-10T03:45:24;3.65;;;0.82;;
43803;SDS011;29430;52.924;-2.388;2023-05-10T03:50:16;5.93;;;1.10;;
43803;SDS011;29430;52.924;-2.388;2023-05-10T03:55:08;8.45;;;1.00;;
43803;SDS011;29430;52.924;-2.388;2023-05-10T04:00:00;4.22;;;0.90;;
43803;SDS011;29430;52.924;-2.388;2023-05-10T04:04:52;5.65;;;1.20;;
43803;SDS011;29430;52.924;-2.388;2023-05-10T04:09:43;5.25;;;0.80;;
43803;SDS011;29430;52.924;-2.388;2023-05-10T04:14:35;6.95;;;1.20;;
43803;SDS011;29430;52.924;-2.388;2023-05-10T04:19:30;9.38;;;1.23;;
43803;SDS011;29430;52.924;-2.388;2023-05-10T04:24:21;4.68;;;0.70;;
43803;SDS011;29430;52.924;-2.388;2023-05-10T04:29:13;6.28;;;0.70;;
43803;SDS011;29430;52.924;-2.388;2023-05-10T04:34:04;4.88;;;0.90;;
43803;SDS011;29430;52.924;-2.388;2023-05-10T04:38:56;9.05;;;0.80;;
43803;SDS011;29430;52.924;-2.388;2023-05-10T04:43:48;5.90;;;1.00;;
43803;SDS011;29430;52.924;-2.388;2023-05-10T04:48:40;6.20;;;0.80;;
43803;SDS011;29430;52.924;-2.388;2023-05-10T04:53:32;3.33;;;0.70;;
43803;SDS011;29430;52.924;-2.388;2023-05-10T04:58:24;5.07;;;1.20;;
43803;SDS011;29430;52.924;-2.388;2023-05-10T05:03:16;4.10;;;0.63;;
43803;SDS011;29430;52.924;-2.388;2023-05-10T05:08:07;6.47;;;0.95;;
43803;SDS011;29430;52.924;-2.388;2023-05-10T05:12:59;8.23;;;1.17;;
43803;SDS011;29430;52.924;-2.388;2023-05-10T05:17:51;4.05;;;0.98;;
43803;SDS011;29430;52.924;-2.388;2023-05-10T05:22:43;4.60;;;0.80;;
43803;SDS011;29430;52.924;-2.388;2023-05-10T05:27:34;4.05;;;0.80;;
43803;SDS011;29430;52.924;-2.388;2023-05-10T05:32:26;6.95;;;1.10;;
43803;SDS011;29430;52.924;-2.388;2023-05-10T05:37:18;5.97;;;0.90;;
43803;SDS011;29430;52.924;-2.388;2023-05-10T05:42:11;9.02;;;1.00;;
43803;SDS011;29430;52.924;-2.388;2023-05-10T05:47:04;7.88;;;1.08;;
43803;SDS011;29430;52.924;-2.388;2023-05-10T05:52:00;5.30;;;0.70;;
43803;SDS011;29430;52.924;-2.388;2023-05-10T05:56:54;6.38;;;0.88;;
43803;SDS011;29430;52.924;-2.388;2023-05-10T06:01:46;6.55;;;0.77;;
43803;SDS011;29430;52.924;-2.388;2023-05-10T06:06:38;4.97;;;0.70;;
43803;SDS011;29430;52.924;-2.388;2023-05-10T06:11:29;5.25;;;0.93;;
43803;SDS011;29430;52.924;-2.388;2023-05-10T06:16:23;4.97;;;0.77;;
43803;SDS011;29430;52.924;-2.388;2023-05-10T06:21:15;5.85;;;0.95;;
43803;SDS011;29430;52.924;-2.388;2023-05-10T06:26:07;6.10;;;0.88;;
43803;SDS011;29430;52.924;-2.388;2023-05-10T06:30:59;3.50;;;0.57;;
43803;SDS011;29430;52.924;-2.388;2023-05-10T06:35:51;3.47;;;0.63;;
43803;SDS011;29430;52.924;-2.388;2023-05-10T06:40:43;4.72;;;0.93;;
43803;SDS011;29430;52.924;-2.388;2023-05-10T06:45:35;5.07;;;0.70;;
43803;SDS011;29430;52.924;-2.388;2023-05-10T06:50:26;6.28;;;0.70;;
43803;SDS011;29430;52.924;-2.388;2023-05-10T06:55:18;6.07;;;0.60;;
43803;SDS011;29430;52.924;-2.388;2023-05-10T07:00:10;6.18;;;0.68;;
43803;SDS011;29430;52.924;-2.388;2023-05-10T07:05:02;6.60;;;0.60;;
43803;SDS011;29430;52.924;-2.388;2023-05-10T07:09:54;6.68;;;0.60;;
43803;SDS011;29430;52.924;-2.388;2023-05-10T07:14:45;7.60;;;0.80;;
43803;SDS011;29430;52.924;-2.388;2023-05-10T07:19:37;7.32;;;0.60;;
43803;SDS011;29430;52.924;-2.388;2023-05-10T07:24:29;4.32;;;0.57;;
43803;SDS011;29430;52.924;-2.388;2023-05-10T07:29:22;3.53;;;0.60;;
43803;SDS011;29430;52.924;-2.388;2023-05-10T07:34:14;3.65;;;0.60;;
43803;SDS011;29430;52.924;-2.388;2023-05-10T07:39:06;2.65;;;0.60;;
43803;SDS011;29430;52.924;-2.388;2023-05-10T07:43:58;6.15;;;1.00;;
43803;SDS011;29430;52.924;-2.388;2023-05-10T07:48:49;3.03;;;0.90;;
43803;SDS011;29430;52.924;-2.388;2023-05-10T07:53:41;4.63;;;0.60;;
43803;SDS011;29430;52.924;-2.388;2023-05-10T07:58:33;4.30;;;0.68;;
43803;SDS011;29430;52.924;-2.388;2023-05-10T08:03:24;5.82;;;0.90;;
43803;SDS011;29430;52.924;-2.388;2023-05-10T08:08:16;4.10;;;0.65;;
43803;SDS011;29430;52.924;-2.388;2023-05-10T08:13:08;4.63;;;0.50;;
43803;SDS011;29430;52.924;-2.388;2023-05-10T08:18:00;2.58;;;0.50;;
43803;SDS011;29430;52.924;-2.388;2023-05-10T08:22:52;5.68;;;0.50;;
43803;SDS011;29430;52.924;-2.388;2023-05-10T08:27:43;4.65;;;0.60;;
43803;SDS011;29430;52.924;-2.388;2023-05-10T08:32:35;6.65;;;0.60;;
43803;SDS011;29430;52.924;-2.388;2023-05-10T08:37:29;8.40;;;0.70;;
43803;SDS011;29430;52.924;-2.388;2023-05-10T08:42:21;6.95;;;1.10;;
43803;SDS011;29430;52.924;-2.388;2023-05-10T08:47:16;5.45;;;0.63;;
43803;SDS011;29430;52.924;-2.388;2023-05-10T08:52:09;3.20;;;0.43;;
43803;SDS011;29430;52.924;-2.388;2023-05-10T08:57:04;3.70;;;0.40;;
43803;SDS011;29430;52.924;-2.388;2023-05-10T09:01:57;3.35;;;0.60;;
43803;SDS011;29430;52.924;-2.388;2023-05-10T09:06:50;4.03;;;0.50;;
43803;SDS011;29430;52.924;-2.388;2023-05-10T09:11:41;2.90;;;0.30;;
43803;SDS011;29430;52.924;-2.388;2023-05-10T09:16:33;2.13;;;0.40;;
43803;SDS011;29430;52.924;-2.388;2023-05-10T09:21:25;6.15;;;0.80;;
43803;SDS011;29430;52.924;-2.388;2023-05-10T09:26:17;1.83;;;0.40;;
43803;SDS011;29430;52.924;-2.388;2023-05-10T09:31:13;2.30;;;0.40;;
43803;SDS011;29430;52.924;-2.388;2023-05-10T09:36:08;2.97;;;0.40;;
43803;SDS011;29430;52.924;-2.388;2023-05-10T09:41:00;3.00;;;0.40;;
43803;SDS011;29430;52.924;-2.388;2023-05-10T09:45:53;1.98;;;0.20;;
43803;SDS011;29430;52.924;-2.388;2023-05-10T09:50:45;3.05;;;0.30;;
43803;SDS011;29430;52.924;-2.388;2023-05-10T09:55:47;5.40;;;0.38;;
43803;SDS011;29430;52.924;-2.388;2023-05-10T10:00:41;2.17;;;0.20;;
43803;SDS011;29430;52.924;-2.388;2023-05-10T10:05:34;3.28;;;0.30;;
43803;SDS011;29430;52.924;-2.388;2023-05-10T10:10:26;1.33;;;0.20;;
43803;SDS011;29430;52.924;-2.388;2023-05-10T10:15:22;2.92;;;0.20;;
43803;SDS011;29430;52.924;-2.388;2023-05-10T10:20:15;2.15;;;0.25;;
43803;SDS011;29430;52.924;-2.388;2023-05-10T10:25:07;1.50;;;0.25;;
43803;SDS011;29430;52.924;-2.388;2023-05-10T10:35:18;3.58;;;0.57;;
43803;SDS011;29430;52.924;-2.388;2023-05-10T10:45:14;1.65;;;0.20;;
43803;SDS011;29430;52.924;-2.388;2023-05-10T10:50:06;3.15;;;0.25;;
43803;SDS011;29430;52.924;-2.388;2023-05-10T10:55:18;1.83;;;0.20;;
43803;SDS011;29430;52.924;-2.388;2023-05-10T11:10:33;1.77;;;0.22;;
43803;SDS011;29430;52.924;-2.388;2023-05-10T11:15:28;1.85;;;0.20;;
43803;SDS011;29430;52.924;-2.388;2023-05-10T11:20:21;0.90;;;0.20;;
43803;SDS011;29430;52.924;-2.388;2023-05-10T11:25:15;1.45;;;0.30;;
43803;SDS011;29430;52.924;-2.388;2023-05-10T11:30:07;1.90;;;0.30;;
43803;SDS011;29430;52.924;-2.388;2023-05-10T11:35:06;1.67;;;0.17;;
43803;SDS011;29430;52.924;-2.388;2023-05-10T11:40:01;0.80;;;0.10;;
43803;SDS011;29430;52.924;-2.388;2023-05-10T11:44:54;1.95;;;0.13;;
43803;SDS011;29430;52.924;-2.388;2023-05-10T11:49:46;1.45;;;0.15;;
43803;SDS011;29430;52.924;-2.388;2023-05-10T11:54:44;0.73;;;0.10;;
43803;SDS011;29430;52.924;-2.388;2023-05-10T11:59:42;0.98;;;0.10;;
43803;SDS011;29430;52.924;-2.388;2023-05-10T12:04:34;0.40;;;0.10;;
43803;SDS011;29430;52.924;-2.388;2023-05-10T12:09:26;0.13;;;0.00;;
43803;SDS011;29430;52.924;-2.388;2023-05-10T12:14:34;0.80;;;0.17;;
43803;SDS011;29430;52.924;-2.388;2023-05-10T12:19:26;0.93;;;0.10;;
43803;SDS011;29430;52.924;-2.388;2023-05-10T12:24:18;0.93;;;0.10;;
43803;SDS011;29430;52.924;-2.388;2023-05-10T12:29:13;0.45;;;0.10;;
43803;SDS011;29430;52.924;-2.388;2023-05-10T12:34:06;1.98;;;0.10;;
43803;SDS011;29430;52.924;-2.388;2023-05-10T12:39:02;0.47;;;0.10;;
43803;SDS011;29430;52.924;-2.388;2023-05-10T12:43:54;0.68;;;0.08;;
43803;SDS011;29430;52.924;-2.388;2023-05-10T12:48:46;0.70;;;0.10;;
43803;SDS011;29430;52.924;-2.388;2023-05-10T12:53:50;1.90;;;0.10;;
43803;SDS011;29430;52.924;-2.388;2023-05-10T12:58:41;0.25;;;0.08;;
43803;SDS011;29430;52.924;-2.388;2023-05-10T13:03:39;0.30;;;0.00;;
43803;SDS011;29430;52.924;-2.388;2023-05-10T13:08:31;0.45;;;0.00;;
43803;SDS011;29430;52.924;-2.388;2023-05-10T13:13:24;2.45;;;0.10;;
43803;SDS011;29430;52.924;-2.388;2023-05-10T13:18:16;1.05;;;0.03;;
43803;SDS011;29430;52.924;-2.388;2023-05-10T13:23:08;1.65;;;0.10;;
43803;SDS011;29430;52.924;-2.388;2023-05-10T13:28:01;1.15;;;0.10;;
43803;SDS011;29430;52.924;-2.388;2023-05-10T13:32:53;3.60;;;0.20;;
43803;SDS011;29430;52.924;-2.388;2023-05-10T13:37:44;3.35;;;0.10;;
43803;SDS011;29430;52.924;-2.388;2023-05-10T13:42:36;0.98;;;0.10;;
43803;SDS011;29430;52.924;-2.388;2023-05-10T13:47:28;2.13;;;0.10;;
43803;SDS011;29430;52.924;-2.388;2023-05-10T13:52:20;1.45;;;0.10;;
43803;SDS011;29430;52.924;-2.388;2023-05-10T13:57:12;0.55;;;0.00;;
43803;SDS011;29430;52.924;-2.388;2023-05-10T14:02:05;0.25;;;0.00;;
43803;SDS011;29430;52.924;-2.388;2023-05-10T14:06:57;1.52;;;0.20;;
43803;SDS011;29430;52.924;-2.388;2023-05-10T14:11:49;0.93;;;0.13;;
43803;SDS011;29430;52.924;-2.388;2023-05-10T14:16:44;0.50;;;0.10;;
43803;SDS011;29430;52.924;-2.388;2023-05-10T14:21:35;0.38;;;0.10;;
43803;SDS011;29430;52.924;-2.388;2023-05-10T14:26:27;1.10;;;0.10;;
43803;SDS011;29430;52.924;-2.388;2023-05-10T14:31:19;0.98;;;0.10;;
43803;SDS011;29430;52.924;-2.388;2023-05-10T14:36:11;0.20;;;0.10;;
43803;SDS011;29430;52.924;-2.388;2023-05-10T14:41:04;0.93;;;0.10;;
43803;SDS011;29430;52.924;-2.388;2023-05-10T14:45:55;0.50;;;0.10;;
43803;SDS011;29430;52.924;-2.388;2023-05-10T14:50:47;0.55;;;0.10;;
43803;SDS011;29430;52.924;-2.388;2023-05-10T14:55:40;0.40;;;0.20;;
43803;SDS011;29430;52.924;-2.388;2023-05-10T15:00:32;0.45;;;0.10;;
43803;SDS011;29430;52.924;-2.388;2023-05-10T15:05:24;0.77;;;0.10;;
43803;SDS011;29430;52.924;-2.388;2023-05-10T15:10:17;0.20;;;0.10;;
43803;SDS011;29430;52.924;-2.388;2023-05-10T15:15:09;0.98;;;0.10;;
43803;SDS011;29430;52.924;-2.388;2023-05-10T15:20:01;0.10;;;0.00;;
43803;SDS011;29430;52.924;-2.388;2023-05-10T15:24:54;1.67;;;0.25;;
43803;SDS011;29430;52.924;-2.388;2023-05-10T15:29:46;1.23;;;0.10;;
43803;SDS011;29430;52.924;-2.388;2023-05-10T15:34:39;1.05;;;0.10;;
43803;SDS011;29430;52.924;-2.388;2023-05-10T15:39:30;0.52;;;0.00;;
43803;SDS011;29430;52.924;-2.388;2023-05-10T15:44:22;1.33;;;0.20;;
43803;SDS011;29430;52.924;-2.388;2023-05-10T15:49:14;1.33;;;0.20;;
43803;SDS011;29430;52.924;-2.388;2023-05-10T15:54:05;2.78;;;0.40;;
43803;SDS011;29430;52.924;-2.388;2023-05-10T15:59:00;1.58;;;0.30;;
43803;SDS011;29430;52.924;-2.388;2023-05-10T16:03:51;1.73;;;0.40;;
43803;SDS011;29430;52.924;-2.388;2023-05-10T16:08:43;1.50;;;0.20;;
43803;SDS011;29430;52.924;-2.388;2023-05-10T16:13:34;4.00;;;0.20;;
43803;SDS011;29430;52.924;-2.388;2023-05-10T16:18:26;1.00;;;0.10;;
43803;SDS011;29430;52.924;-2.388;2023-05-10T16:23:18;1.45;;;0.10;;
43803;SDS011;29430;52.924;-2.388;2023-05-10T16:28:09;2.97;;;0.10;;
43803;SDS011;29430;52.924;-2.388;2023-05-10T16:33:01;0.60;;;0.10;;
43803;SDS011;29430;52.924;-2.388;2023-05-10T16:37:53;1.90;;;0.10;;
43803;SDS011;29430;52.924;-2.388;2023-05-10T16:42:45;0.65;;;0.10;;
43803;SDS011;29430;52.924;-2.388;2023-05-10T16:47:37;2.70;;;0.20;;
43803;SDS011;29430;52.924;-2.388;2023-05-10T16:52:30;3.60;;;0.30;;
43803;SDS011;29430;52.924;-2.388;2023-05-10T16:57:22;1.10;;;0.20;;
43803;SDS011;29430;52.924;-2.388;2023-05-10T17:02:14;3.28;;;0.43;;
43803;SDS011;29430;52.924;-2.388;2023-05-10T17:07:06;1.35;;;0.10;;
43803;SDS011;29430;52.924;-2.388;2023-05-10T17:11:58;2.03;;;0.20;;
43803;SDS011;29430;52.924;-2.388;2023-05-10T17:16:50;1.83;;;0.20;;
43803;SDS011;29430;52.924;-2.388;2023-05-10T17:21:43;0.85;;;0.10;;
43803;SDS011;29430;52.924;-2.388;2023-05-10T17:26:35;1.05;;;0.20;;
43803;SDS011;29430;52.924;-2.388;2023-05-10T17:31:27;1.60;;;0.20;;
43803;SDS011;29430;52.924;-2.388;2023-05-10T17:36:20;1.85;;;0.30;;
43803;SDS011;29430;52.924;-2.388;2023-05-10T17:41:12;1.90;;;0.17;;
43803;SDS011;29430;52.924;-2.388;2023-05-10T17:46:05;1.33;;;0.03;;
43803;SDS011;29430;52.924;-2.388;2023-05-10T17:50:56;2.45;;;0.10;;
43803;SDS011;29430;52.924;-2.388;2023-05-10T17:55:49;2.45;;;0.10;;
43803;SDS011;29430;52.924;-2.388;2023-05-10T18:00:42;0.82;;;0.13;;
43803;SDS011;29430;52.924;-2.388;2023-05-10T18:05:34;1.85;;;0.45;;
43803;SDS011;29430;52.924;-2.388;2023-05-10T18:10:27;3.38;;;0.20;;
43803;SDS011;29430;52.924;-2.388;2023-05-10T18:15:19;2.58;;;0.25;;
43803;SDS011;29430;52.924;-2.388;2023-05-10T18:20:11;0.60;;;0.20;;
43803;SDS011;29430;52.924;-2.388;2023-05-10T18:25:03;1.42;;;0.10;;
43803;SDS011;29430;52.924;-2.388;2023-05-10T18:29:55;0.55;;;0.10;;
43803;SDS011;29430;52.924;-2.388;2023-05-10T18:34:47;1.90;;;0.20;;
43803;SDS011;29430;52.924;-2.388;2023-05-10T18:39:39;2.47;;;0.30;;
43803;SDS011;29430;52.924;-2.388;2023-05-10T18:44:31;2.13;;;0.15;;
43803;SDS011;29430;52.924;-2.388;2023-05-10T18:49:22;3.90;;;0.20;;
43803;SDS011;29430;52.924;-2.388;2023-05-10T18:54:14;2.38;;;0.20;;
43803;SDS011;29430;52.924;-2.388;2023-05-10T18:59:06;1.60;;;0.20;;
43803;SDS011;29430;52.924;-2.388;2023-05-10T19:03:57;2.65;;;0.20;;
43803;SDS011;29430;52.924;-2.388;2023-05-10T19:08:49;2.78;;;0.32;;
43803;SDS011;29430;52.924;-2.388;2023-05-10T19:13:41;2.65;;;0.20;;
43803;SDS011;29430;52.924;-2.388;2023-05-10T19:18:33;1.80;;;0.30;;
43803;SDS011;29430;52.924;-2.388;2023-05-10T19:23:25;4.10;;;0.20;;
43803;SDS011;29430;52.924;-2.388;2023-05-10T19:28:17;2.90;;;0.10;;
43803;SDS011;29430;52.924;-2.388;2023-05-10T19:33:09;1.88;;;0.20;;
43803;SDS011;29430;52.924;-2.388;2023-05-10T19:38:02;3.03;;;0.20;;
43803;SDS011;29430;52.924;-2.388;2023-05-10T19:42:55;1.92;;;0.20;;
43803;SDS011;29430;52.924;-2.388;2023-05-10T19:47:47;1.65;;;0.20;;
43803;SDS011;29430;52.924;-2.388;2023-05-10T19:52:38;2.65;;;0.20;;
43803;SDS011;29430;52.924;-2.388;2023-05-10T19:57:30;2.42;;;0.20;;
43803;SDS011;29430;52.924;-2.388;2023-05-10T20:02:22;2.20;;;0.20;;
43803;SDS011;29430;52.924;-2.388;2023-05-10T20:07:13;3.10;;;0.20;;
43803;SDS011;29430;52.924;-2.388;2023-05-10T20:12:05;1.73;;;0.20;;
43803;SDS011;29430;52.924;-2.388;2023-05-10T20:16:57;3.03;;;0.30;;
43803;SDS011;29430;52.924;-2.388;2023-05-10T20:21:48;2.03;;;0.20;;
43803;SDS011;29430;52.924;-2.388;2023-05-10T20:26:40;1.13;;;0.20;;
43803;SDS011;29430;52.924;-2.388;2023-05-10T20:31:32;2.85;;;0.50;;
43803;SDS011;29430;52.924;-2.388;2023-05-10T20:36:24;2.92;;;0.40;;
43803;SDS011;29430;52.924;-2.388;2023-05-10T20:41:16;2.30;;;0.20;;
43803;SDS011;29430;52.924;-2.388;2023-05-10T20:46:08;2.45;;;0.10;;
43803;SDS011;29430;52.924;-2.388;2023-05-10T20:51:00;2.22;;;0.20;;
43803;SDS011;29430;52.924;-2.388;2023-05-10T20:55:52;2.10;;;0.17;;
43803;SDS011;29430;52.924;-2.388;2023-05-10T21:00:44;2.90;;;0.17;;
43803;SDS011;29430;52.924;-2.388;2023-05-10T21:05:36;2.70;;;0.20;;
43803;SDS011;29430;52.924;-2.388;2023-05-10T21:10:27;8.95;;;0.47;;
43803;SDS011;29430;52.924;-2.388;2023-05-10T21:15:19;5.88;;;0.30;;
43803;SDS011;29430;52.924;-2.388;2023-05-10T21:20:12;1.27;;;0.20;;
43803;SDS011;29430;52.924;-2.388;2023-05-10T21:25:04;5.13;;;0.20;;
43803;SDS011;29430;52.924;-2.388;2023-05-10T21:29:56;6.60;;;0.30;;
43803;SDS011;29430;52.924;-2.388;2023-05-10T21:34:48;2.35;;;0.15;;
43803;SDS011;29430;52.924;-2.388;2023-05-10T21:39:39;3.60;;;0.20;;
43803;SDS011;29430;52.924;-2.388;2023-05-10T21:44:31;2.75;;;0.22;;
43803;SDS011;29430;52.924;-2.388;2023-05-10T21:49:22;2.10;;;0.43;;
43803;SDS011;29430;52.924;-2.388;2023-05-10T21:54:14;1.85;;;0.20;;
43803;SDS011;29430;52.924;-2.388;2023-05-10T21:59:06;2.25;;;0.30;;
43803;SDS011;29430;52.924;-2.388;2023-05-10T22:03:57;2.25;;;0.28;;
43803;SDS011;29430;52.924;-2.388;2023-05-10T22:08:49;6.53;;;0.40;;
43803;SDS011;29430;52.924;-2.388;2023-05-10T22:13:41;3.47;;;0.20;;
43803;SDS011;29430;52.924;-2.388;2023-05-10T22:18:32;3.33;;;0.30;;
43803;SDS011;29430;52.924;-2.388;2023-05-10T22:23:24;4.68;;;0.30;;
43803;SDS011;29430;52.924;-2.388;2023-05-10T22:28:16;3.50;;;0.30;;
43803;SDS011;29430;52.924;-2.388;2023-05-10T22:33:07;4.82;;;0.30;;
43803;SDS011;29430;52.924;-2.388;2023-05-10T22:37:59;3.75;;;0.30;;
43803;SDS011;29430;52.924;-2.388;2023-05-10T22:42:51;1.92;;;0.30;;
43803;SDS011;29430;52.924;-2.388;2023-05-10T22:47:42;3.08;;;0.30;;
43803;SDS011;29430;52.924;-2.388;2023-05-10T22:52:34;2.65;;;0.30;;
43803;SDS011;29430;52.924;-2.388;2023-05-10T22:57:28;3.78;;;0.30;;
43803;SDS011;29430;52.924;-2.388;2023-05-10T23:02:21;2.03;;;0.28;;
43803;SDS011;29430;52.924;-2.388;2023-05-10T23:07:12;2.85;;;0.20;;
43803;SDS011;29430;52.924;-2.388;2023-05-10T23:12:04;2.20;;;0.20;;
43803;SDS011;29430;52.924;-2.388;2023-05-10T23:16:56;2.70;;;0.20;;
43803;SDS011;29430;52.924;-2.388;2023-05-10T23:21:47;3.83;;;0.30;;
43803;SDS011;29430;52.924;-2.388;2023-05-10T23:26:39;5.10;;;1.15;;
43803;SDS011;29430;52.924;-2.388;2023-05-10T23:31:31;4.65;;;0.30;;
43803;SDS011;29430;52.924;-2.388;2023-05-10T23:36:22;2.92;;;0.30;;
43803;SDS011;29430;52.924;-2.388;2023-05-10T23:41:14;4.53;;;0.65;;
43803;SDS011;29430;52.924;-2.388;2023-05-10T23:46:06;2.97;;;0.20;;
43803;SDS011;29430;52.924;-2.388;2023-05-10T23:50:57;2.65;;;0.30;;
43803;SDS011;29430;52.924;-2.388;2023-05-10T23:55:49;2.20;;;0.30;;
